createdAt,value
2018-12-30T00:00:58.552Z,7.60
2018-12-30T00:03:27.299Z,7.72
2018-12-30T00:05:56.238Z,8.20
2018-12-30T00:08:25.185Z,8.18
2018-12-30T00:10:54.146Z,7.85
2018-12-30T00:13:23.125Z,8.25
2018-12-30T00:15:51.841Z,7.75
2018-12-30T00:18:20.593Z,8.70
2018-12-30T00:20:49.365Z,9.10
2018-12-30T00:23:18.512Z,8.18
2018-12-30T00:25:47.241Z,8.50
2018-12-30T00:28:16.023Z,8.50
2018-12-30T00:30:44.708Z,8.95
2018-12-30T00:33:13.326Z,8.78
2018-12-30T00:35:41.985Z,9.05
2018-12-30T00:38:10.657Z,8.35
2018-12-30T00:40:39.294Z,7.95
2018-12-30T00:43:07.947Z,9.63
2018-12-30T00:45:36.595Z,9.00
2018-12-30T00:48:05.228Z,8.80
2018-12-30T00:50:34.037Z,9.38
2018-12-30T00:53:02.647Z,7.37
2018-12-30T00:55:31.321Z,9.48
2018-12-30T00:58:00.905Z,8.43
2018-12-30T01:00:29.579Z,7.67
2018-12-30T01:02:58.345Z,8.50
2018-12-30T01:05:27.301Z,8.05
2018-12-30T01:07:56.002Z,8.35
2018-12-30T01:10:24.713Z,7.83
2018-12-30T01:12:53.366Z,6.92
2018-12-30T01:15:22.062Z,7.30
2018-12-30T01:17:50.702Z,7.92
2018-12-30T01:20:19.457Z,8.68
2018-12-30T01:22:48.115Z,6.95
2018-12-30T01:25:16.794Z,7.15
2018-12-30T01:27:45.416Z,6.70
2018-12-30T01:30:14.129Z,6.17
2018-12-30T01:32:42.943Z,7.00
2018-12-30T01:35:11.655Z,6.67
2018-12-30T01:37:40.294Z,6.15
2018-12-30T01:40:09.020Z,6.47
2018-12-30T01:42:37.727Z,5.85
2018-12-30T01:45:06.510Z,5.47
2018-12-30T01:47:35.145Z,5.17
2018-12-30T01:50:03.828Z,5.62
2018-12-30T01:52:32.505Z,4.65
2018-12-30T01:55:01.137Z,3.65
2018-12-30T01:57:29.809Z,3.85
2018-12-30T01:59:58.503Z,3.20
2018-12-30T02:02:27.125Z,3.10
2018-12-30T02:04:55.801Z,3.25
2018-12-30T02:07:24.481Z,3.95
2018-12-30T02:09:53.091Z,3.45
2018-12-30T02:12:22.037Z,3.45
2018-12-30T02:14:50.675Z,2.90
2018-12-30T02:17:19.342Z,2.30
2018-12-30T02:19:47.976Z,2.83
2018-12-30T02:22:16.599Z,2.60
2018-12-30T02:24:45.522Z,2.45
2018-12-30T02:27:14.187Z,2.30
2018-12-30T02:29:42.910Z,2.42
2018-12-30T02:32:11.580Z,2.25
2018-12-30T02:34:40.186Z,2.45
2018-12-30T02:37:09.082Z,3.40
2018-12-30T02:39:37.759Z,2.20
2018-12-30T02:42:06.397Z,2.55
2018-12-30T02:44:35.088Z,2.80
2018-12-30T02:47:03.701Z,2.02
2018-12-30T02:49:32.534Z,2.70
2018-12-30T02:52:01.178Z,2.70
2018-12-30T02:54:29.847Z,2.30
2018-12-30T02:56:58.558Z,2.02
2018-12-30T02:59:27.165Z,2.80
2018-12-30T03:01:56.106Z,2.45
2018-12-30T03:04:24.818Z,2.22
2018-12-30T03:06:53.478Z,3.15
2018-12-30T03:09:22.091Z,2.35
2018-12-30T03:11:50.703Z,2.70
2018-12-30T03:14:19.656Z,2.60
2018-12-30T03:16:48.297Z,2.52
2018-12-30T03:19:16.963Z,2.55
2018-12-30T03:21:45.602Z,2.90
2018-12-30T03:24:14.254Z,2.90
2018-12-30T03:26:42.926Z,2.65
2018-12-30T03:29:11.710Z,3.12
2018-12-30T03:31:40.284Z,2.02
2018-12-30T03:34:08.934Z,2.83
2018-12-30T03:36:37.647Z,2.90
2018-12-30T03:39:07.868Z,2.85
2018-12-30T03:41:36.549Z,2.67
2018-12-30T03:44:05.262Z,2.55
2018-12-30T03:46:33.874Z,2.60
2018-12-30T03:49:02.501Z,2.45
2018-12-30T03:51:31.139Z,3.85
2018-12-30T03:53:59.748Z,2.85
2018-12-30T03:56:28.472Z,2.55
2018-12-30T03:58:57.086Z,3.05
2018-12-30T04:01:25.819Z,2.40
2018-12-30T04:03:54.474Z,2.95
2018-12-30T04:06:23.130Z,3.30
2018-12-30T04:08:51.737Z,5.22
2018-12-30T04:11:20.413Z,3.10
2018-12-30T04:13:49.214Z,3.45
2018-12-30T04:16:17.878Z,2.80
2018-12-30T04:18:46.531Z,3.20
2018-12-30T04:21:15.219Z,3.00
2018-12-30T04:23:43.895Z,2.70
2018-12-30T04:26:12.547Z,3.37
2018-12-30T04:28:41.185Z,3.70
2018-12-30T04:31:09.819Z,3.33
2018-12-30T04:33:38.497Z,3.05
2018-12-30T04:36:07.175Z,3.10
2018-12-30T04:38:35.789Z,2.70
2018-12-30T04:41:04.515Z,3.45
2018-12-30T04:43:33.180Z,2.90
2018-12-30T04:46:01.830Z,3.00
2018-12-30T04:48:30.470Z,3.33
2018-12-30T04:50:59.120Z,3.25
2018-12-30T04:53:27.739Z,2.98
2018-12-30T04:55:56.436Z,4.05
2018-12-30T04:58:25.084Z,2.85
2018-12-30T05:00:53.704Z,3.00
2018-12-30T05:03:22.386Z,3.58
2018-12-30T05:05:51.045Z,5.08
2018-12-30T05:08:19.712Z,3.00
2018-12-30T05:10:48.376Z,3.70
2018-12-30T05:13:17.061Z,3.05
2018-12-30T05:15:45.817Z,3.08
2018-12-30T05:18:14.454Z,3.20
2018-12-30T05:20:43.142Z,5.05
2018-12-30T05:23:11.885Z,3.05
2018-12-30T05:25:40.506Z,3.12
2018-12-30T05:28:09.173Z,2.70
2018-12-30T05:30:37.821Z,3.20
2018-12-30T05:33:06.472Z,2.75
2018-12-30T05:35:35.111Z,3.08
2018-12-30T05:38:03.767Z,2.62
2018-12-30T05:40:32.412Z,2.60
2018-12-30T05:43:01.114Z,2.45
2018-12-30T05:45:29.769Z,3.60
2018-12-30T05:47:58.416Z,3.10
2018-12-30T05:50:27.066Z,3.30
2018-12-30T05:52:55.741Z,3.77
2018-12-30T05:55:24.365Z,3.22
2018-12-30T05:57:53.057Z,3.30
2018-12-30T06:00:21.673Z,3.37
2018-12-30T06:02:50.297Z,3.90
2018-12-30T06:05:18.941Z,4.15
2018-12-30T06:07:47.624Z,3.22
2018-12-30T06:10:16.305Z,4.10
2018-12-30T06:12:45.001Z,3.27
2018-12-30T06:15:13.709Z,2.83
2018-12-30T06:17:42.387Z,5.17
2018-12-30T06:20:11.016Z,3.55
2018-12-30T06:22:39.641Z,3.35
2018-12-30T06:25:08.253Z,3.52
2018-12-30T06:27:36.914Z,2.90
2018-12-30T06:30:05.719Z,3.30
2018-12-30T06:32:34.353Z,3.67
2018-12-30T06:35:02.984Z,3.62
2018-12-30T06:37:31.658Z,4.00
2018-12-30T06:40:00.301Z,3.00
2018-12-30T06:42:28.928Z,3.20
2018-12-30T06:44:57.576Z,3.65
2018-12-30T06:47:26.189Z,3.67
2018-12-30T06:49:54.875Z,3.85
2018-12-30T06:52:23.492Z,3.00
2018-12-30T06:54:52.244Z,3.00
2018-12-30T06:57:20.896Z,4.28
2018-12-30T06:59:49.541Z,3.80
2018-12-30T07:02:18.703Z,4.42
2018-12-30T07:04:47.371Z,3.80
2018-12-30T07:07:16.002Z,3.60
2018-12-30T07:09:44.666Z,4.97
2018-12-30T07:12:13.291Z,4.37
2018-12-30T07:14:41.960Z,5.17
2018-12-30T07:17:10.567Z,4.65
2018-12-30T07:19:39.205Z,4.62
2018-12-30T07:22:07.819Z,3.70
2018-12-30T07:24:36.439Z,4.22
2018-12-30T07:27:05.126Z,3.65
2018-12-30T07:29:33.747Z,3.98
2018-12-30T07:32:02.522Z,4.40
2018-12-30T07:34:31.217Z,5.15
2018-12-30T07:36:59.902Z,4.75
2018-12-30T07:39:28.549Z,4.00
2018-12-30T07:41:57.151Z,4.33
2018-12-30T07:44:25.836Z,4.72
2018-12-30T07:46:54.479Z,3.87
2018-12-30T07:49:23.180Z,6.20
2018-12-30T07:51:51.841Z,4.60
2018-12-30T07:54:20.480Z,4.08
2018-12-30T07:56:49.105Z,4.15
2018-12-30T07:59:17.752Z,4.12
2018-12-30T08:01:46.518Z,5.70
2018-12-30T08:04:15.093Z,4.80
2018-12-30T08:06:43.758Z,5.08
2018-12-30T08:09:12.382Z,4.05
2018-12-30T08:11:41.000Z,4.00
2018-12-30T08:14:09.716Z,3.20
2018-12-30T08:16:38.331Z,4.35
2018-12-30T08:19:06.952Z,3.95
2018-12-30T08:21:35.582Z,4.22
2018-12-30T08:24:04.227Z,4.12
2018-12-30T08:26:32.853Z,4.10
2018-12-30T08:29:01.494Z,4.55
2018-12-30T08:31:30.124Z,4.22
2018-12-30T08:33:58.788Z,3.87
2018-12-30T08:36:27.413Z,4.28
2018-12-30T08:38:56.058Z,4.85
2018-12-30T08:41:24.704Z,3.62
2018-12-30T08:43:53.334Z,4.35
2018-12-30T08:46:22.006Z,3.62
2018-12-30T08:48:50.613Z,4.47
2018-12-30T08:51:19.249Z,3.65
2018-12-30T08:53:47.866Z,4.78
2018-12-30T08:56:16.550Z,3.62
2018-12-30T08:58:45.185Z,4.20
2018-12-30T09:01:13.844Z,3.50
2018-12-30T09:03:42.489Z,3.98
2018-12-30T09:06:11.097Z,4.95
2018-12-30T09:08:39.763Z,4.53
2018-12-30T09:11:08.378Z,4.85
2018-12-30T09:13:37.012Z,5.67
2018-12-30T09:16:05.627Z,3.87
2018-12-30T09:18:34.280Z,4.72
2018-12-30T09:21:02.961Z,6.17
2018-12-30T09:23:37.267Z,4.30
2018-12-30T09:26:02.460Z,5.28
2018-12-30T09:28:31.201Z,4.78
2018-12-30T09:30:59.921Z,4.97
2018-12-30T09:33:28.571Z,5.30
2018-12-30T09:35:57.189Z,4.70
2018-12-30T09:38:25.948Z,4.40
2018-12-30T09:40:54.570Z,5.03
2018-12-30T09:43:23.253Z,4.90
2018-12-30T09:45:51.924Z,5.15
2018-12-30T09:48:20.563Z,9.43
2018-12-30T09:50:49.360Z,6.58
2018-12-30T09:53:18.033Z,6.62
2018-12-30T09:55:46.663Z,5.33
2018-12-30T09:58:15.286Z,5.60
2018-12-30T10:00:43.938Z,5.78
2018-12-30T10:03:12.614Z,13.28
2018-12-30T10:05:41.288Z,4.92
2018-12-30T10:08:09.918Z,5.90
2018-12-30T10:10:38.550Z,5.35
2018-12-30T10:13:07.228Z,5.72
2018-12-30T10:15:35.870Z,6.40
2018-12-30T10:18:04.517Z,6.33
2018-12-30T10:20:33.144Z,6.10
2018-12-30T10:23:01.879Z,10.30
2018-12-30T10:25:30.552Z,6.47
2018-12-30T10:27:59.186Z,6.03
2018-12-30T10:30:27.830Z,6.58
2018-12-30T10:32:56.447Z,6.35
2018-12-30T10:35:25.134Z,5.33
2018-12-30T10:37:53.808Z,6.33
2018-12-30T10:40:29.011Z,7.62
2018-12-30T10:42:57.655Z,6.25
2018-12-30T10:45:26.306Z,6.42
2018-12-30T10:47:54.922Z,6.50
2018-12-30T10:50:23.618Z,7.45
2018-12-30T10:52:52.451Z,7.60
2018-12-30T10:55:21.098Z,7.37
2018-12-30T10:57:49.758Z,6.10
2018-12-30T11:00:18.490Z,6.60
2018-12-30T11:02:47.161Z,6.65
2018-12-30T11:05:15.833Z,7.75
2018-12-30T11:07:44.581Z,7.67
2018-12-30T11:10:16.217Z,5.97
2018-12-30T11:12:44.836Z,7.20
2018-12-30T11:15:13.583Z,6.67
2018-12-30T11:17:42.204Z,6.87
2018-12-30T11:20:10.948Z,7.20
2018-12-30T11:22:39.682Z,7.55
2018-12-30T11:25:08.436Z,10.23
2018-12-30T11:27:37.075Z,8.43
2018-12-30T11:30:06.614Z,8.00
2018-12-30T11:32:35.652Z,7.00
2018-12-30T11:35:04.449Z,9.55
2018-12-30T11:37:33.274Z,8.45
2018-12-30T11:40:01.950Z,6.75
2018-12-30T11:42:30.648Z,7.05
2018-12-30T11:45:01.807Z,7.53
2018-12-30T11:47:30.508Z,7.42
2018-12-30T11:49:59.210Z,7.25
2018-12-30T11:52:28.351Z,7.05
2018-12-30T11:54:57.245Z,8.25
2018-12-30T11:57:26.146Z,6.85
2018-12-30T11:59:54.869Z,7.85
2018-12-30T12:02:24.386Z,7.15
2018-12-30T12:04:53.224Z,7.60
2018-12-30T12:07:22.031Z,6.00
2018-12-30T12:09:50.674Z,7.78
2018-12-30T12:12:19.306Z,7.28
2018-12-30T12:14:48.217Z,6.15
2018-12-30T12:17:16.868Z,7.90
2018-12-30T12:19:45.685Z,8.00
2018-12-30T12:22:14.282Z,7.30
2018-12-30T12:24:42.948Z,7.50
2018-12-30T12:27:11.580Z,5.42
2018-12-30T12:29:40.405Z,6.28
2018-12-30T12:32:09.051Z,7.33
2018-12-30T12:34:37.737Z,5.92
2018-12-30T12:37:06.353Z,6.10
2018-12-30T12:39:35.131Z,5.45
2018-12-30T12:42:03.884Z,4.70
2018-12-30T12:44:32.589Z,5.40
2018-12-30T12:47:01.213Z,5.08
2018-12-30T12:49:29.861Z,5.10
2018-12-30T12:51:58.475Z,4.90
2018-12-30T12:54:32.037Z,5.40
2018-12-30T12:56:57.691Z,4.65
2018-12-30T12:59:26.327Z,4.22
2018-12-30T13:01:55.100Z,6.37
2018-12-30T13:04:23.794Z,5.33
2018-12-30T13:06:52.467Z,3.62
2018-12-30T13:09:21.150Z,4.00
2018-12-30T13:11:49.712Z,3.83
2018-12-30T13:14:18.389Z,3.87
2018-12-30T13:16:47.032Z,3.37
2018-12-30T13:19:15.675Z,3.20
2018-12-30T13:21:44.435Z,3.17
2018-12-30T13:24:13.088Z,2.75
2018-12-30T13:26:41.758Z,2.47
2018-12-30T13:29:11.788Z,3.25
2018-12-30T13:31:48.384Z,3.20
2018-12-30T13:34:17.041Z,1.72
2018-12-30T13:36:45.715Z,2.98
2018-12-30T13:39:14.457Z,4.20
2018-12-30T13:41:43.087Z,3.67
2018-12-30T13:44:11.935Z,2.65
2018-12-30T13:46:40.554Z,2.42
2018-12-30T13:49:09.340Z,2.12
2018-12-30T13:51:37.971Z,3.25
2018-12-30T13:54:06.584Z,2.80
2018-12-30T13:56:35.271Z,2.25
2018-12-30T13:59:04.004Z,3.35
2018-12-30T14:01:32.724Z,3.08
2018-12-30T14:04:01.410Z,2.50
2018-12-30T14:06:30.206Z,2.55
2018-12-30T14:08:58.910Z,2.60
2018-12-30T14:11:27.650Z,2.58
2018-12-30T14:13:56.619Z,2.20
2018-12-30T14:16:25.435Z,2.65
2018-12-30T14:18:54.077Z,2.22
2018-12-30T14:21:22.885Z,3.65
2018-12-30T14:23:55.333Z,2.45
2018-12-30T14:26:23.975Z,2.52
2018-12-30T14:28:52.600Z,1.75
2018-12-30T14:31:21.289Z,2.12
2018-12-30T14:33:49.950Z,2.00
2018-12-30T14:36:18.811Z,2.02
2018-12-30T14:38:47.526Z,2.33
2018-12-30T14:41:16.214Z,2.00
2018-12-30T14:43:47.015Z,2.90
2018-12-30T14:46:15.708Z,2.58
2018-12-30T14:48:44.462Z,2.40
2018-12-30T14:51:13.282Z,2.12
2018-12-30T14:53:42.034Z,2.10
2018-12-30T14:56:10.856Z,2.00
2018-12-30T14:58:39.557Z,3.00
2018-12-30T15:01:14.746Z,2.47
2018-12-30T15:03:38.773Z,2.98
2018-12-30T15:06:07.509Z,4.08
2018-12-30T15:08:36.246Z,2.50
2018-12-30T15:11:05.201Z,2.70
2018-12-30T15:13:33.923Z,3.30
2018-12-30T15:16:02.723Z,3.33
2018-12-30T15:18:31.439Z,4.62
2018-12-30T15:21:00.254Z,4.47
2018-12-30T15:23:28.993Z,3.80
2018-12-30T15:25:57.642Z,4.50
2018-12-30T15:28:26.286Z,3.85
2018-12-30T15:30:54.968Z,4.58
2018-12-30T15:33:23.626Z,3.98
2018-12-30T15:35:52.320Z,4.05
2018-12-30T15:38:21.041Z,4.40
2018-12-30T15:40:49.671Z,5.10
2018-12-30T15:43:18.302Z,3.87
2018-12-30T15:45:46.967Z,4.12
2018-12-30T15:48:15.591Z,3.45
2018-12-30T15:50:44.257Z,3.15
2018-12-30T15:53:12.886Z,2.75
2018-12-30T15:55:41.598Z,2.98
2018-12-30T15:58:10.215Z,3.10
2018-12-30T16:00:39.035Z,3.70
2018-12-30T16:03:07.719Z,3.00
2018-12-30T16:05:36.329Z,2.55
2018-12-30T16:08:05.076Z,3.98
2018-12-30T16:10:33.907Z,3.10
2018-12-30T16:13:02.768Z,2.83
2018-12-30T16:15:31.734Z,5.45
2018-12-30T16:18:00.405Z,3.55
2018-12-30T16:20:29.382Z,3.15
2018-12-30T16:22:58.320Z,3.60
2018-12-30T16:25:27.438Z,4.33
2018-12-30T16:27:56.179Z,4.65
2018-12-30T16:30:24.787Z,3.65
2018-12-30T16:32:53.426Z,4.20
2018-12-30T16:35:22.175Z,4.40
2018-12-30T16:37:51.040Z,4.80
2018-12-30T16:40:19.781Z,4.10
2018-12-30T16:42:48.661Z,3.67
2018-12-30T16:45:17.374Z,4.40
2018-12-30T16:47:46.097Z,5.67
2018-12-30T16:50:14.803Z,4.87
2018-12-30T16:52:43.607Z,4.55
2018-12-30T16:55:12.422Z,6.87
2018-12-30T16:57:41.356Z,6.35
2018-12-30T17:00:10.520Z,5.60
2018-12-30T17:02:57.442Z,5.40
2018-12-30T17:05:31.739Z,5.40
2018-12-30T17:08:18.643Z,4.95
2018-12-30T17:10:47.268Z,6.12
2018-12-30T17:13:15.913Z,5.55
2018-12-30T17:15:46.039Z,6.37
2018-12-30T17:18:14.986Z,5.70
2018-12-30T17:20:43.841Z,7.08
2018-12-30T17:23:13.962Z,6.78
2018-12-30T17:25:46.648Z,6.12
2018-12-30T17:28:15.535Z,5.70
2018-12-30T17:30:44.857Z,5.25
2018-12-30T17:33:13.848Z,6.60
2018-12-30T17:35:42.646Z,5.53
2018-12-30T17:38:12.334Z,6.78
2018-12-30T17:40:41.795Z,6.08
2018-12-30T17:43:13.261Z,5.92
2018-12-30T17:45:45.083Z,5.50
2018-12-30T17:48:13.864Z,6.70
2018-12-30T17:50:42.900Z,9.20
2018-12-30T17:53:12.068Z,7.37
2018-12-30T17:55:41.054Z,6.60
2018-12-30T17:58:09.886Z,6.00
2018-12-30T18:00:41.320Z,6.35
2018-12-30T18:03:11.595Z,5.78
2018-12-30T18:05:40.527Z,6.35
2018-12-30T18:08:09.357Z,5.92
2018-12-30T18:10:38.535Z,6.10
2018-12-30T18:13:07.874Z,6.58
2018-12-30T18:15:38.718Z,6.95
2018-12-30T18:18:08.989Z,7.25
2018-12-30T18:20:38.479Z,8.78
2018-12-30T18:54:25.902Z,6.67
2018-12-30T18:58:11.193Z,7.55
2018-12-30T19:01:30.670Z,7.17
2018-12-30T19:04:46.121Z,7.28
2018-12-30T19:08:21.920Z,7.28
2018-12-30T19:11:24.682Z,7.17
2018-12-30T21:40:46.758Z,10.88
2018-12-30T21:43:55.982Z,9.68
2018-12-30T21:54:50.144Z,11.20
2018-12-30T21:58:13.759Z,12.73
2018-12-30T22:16:44.428Z,13.48
2018-12-30T22:19:16.500Z,13.10
2018-12-30T22:22:02.167Z,12.93
2018-12-30T22:28:11.587Z,13.43
2018-12-30T22:34:48.678Z,13.60
2018-12-30T22:37:32.823Z,15.98
2018-12-30T22:40:34.657Z,13.90
2018-12-30T22:47:08.908Z,13.95
2018-12-30T22:54:12.902Z,13.62
2018-12-30T23:00:55.409Z,14.05
2018-12-30T23:03:57.458Z,15.18
2018-12-30T23:10:24.513Z,13.72
2018-12-30T23:13:20.664Z,13.70
2018-12-30T23:15:54.670Z,13.75
2018-12-30T23:18:32.196Z,14.13
2018-12-30T23:21:16.901Z,13.75
2018-12-30T23:24:13.823Z,15.35
2018-12-30T23:30:50.507Z,14.20
2018-12-30T23:33:39.117Z,13.88
2018-12-30T23:37:03.213Z,13.80
2018-12-30T23:40:04.286Z,12.68
2018-12-30T23:42:34.530Z,13.30
2018-12-30T23:45:03.236Z,13.48
2018-12-30T23:47:32.030Z,14.13
2018-12-30T23:50:00.794Z,13.45
2018-12-30T23:52:29.681Z,13.85
2018-12-30T23:54:58.398Z,13.50
2018-12-30T23:57:27.144Z,14.50
2018-12-30T23:59:56.456Z,14.23
